Туризм
Свали.ру
Погода в мире
ИА "Метеоновости"
Информеры
для сайтов
Туры
поиск и заказ
Авиабилеты
регулярные и чартерные рейсы
 
    На главную   Табло рисков задержки   Авиабилеты   Расписание авиарейсов

Damascus International Airport    ICAO или ID: OSDI, IATA: DAM
Большой аэропорт, регулярные рейсы
добавить в избранное


широта:
долгота:
высота над уровнем моря:
33°25'
36°31'

616 м
Страна: Сирия (Syria)
погода
климат
описание
туры
отели
аэропорты
Риск задержки рейсов из-за погоды
Факт:  
Прогноз:  
 Карта
 

 Рядом расположенные города (расстояние примерное по прямой)
Выберите город, чтобы узнать прогноз погоды, или , чтобы прочитать описание
Амман 166 км
Amman, Иордания
Анжар 65 км
Anjar, Ливан
Баальбек 72 км
Baalbek, Ливан
Бейрут 106 км
Beyrouth, Ливан
Дамаск 1 км
Damascus
Джебель (Библос) 112 км
Jbeil (Byblos), Ливан
Джераш 138 км
Jerash, Иордания
Джуния 100 км
Jounieh, Ливан
Дума 21 км
Douma
Ирбид 121 км
Irbid, Иордания
Кедры 102 км
Cedars, Ливан
Сайда (Сидон) 107 км
Saida (Sidon), Ливан
Сур (Тир) 123 км
Sour (Tyre), Ливан
Тверия 115 км
Teverya (Tiberias), Израиль
Триполи 133 км
Tripoli, Ливан
Умм аль Джималь 118 км
Umm al Jimal, Иордания
Хайфа 154 км
Hifa, Израиль
Хомс 142 км
Homs
Цфат 107 км
Zefat, Израиль
Эз-Зарка 155 км
Az-Zarqa, Иордания


Фактическая погода за срок 12:00 UTC 03-07-2020, день
Восход
02:29
Заход
16:47
Долгота дня 
14:19 
Текущее время 12:58 UTC 03-07-2020

Риск задержки рейсов из-за погоды T воздуха и точки росы,oC Погода Давление, мм Влажность, % Напр. и скорость ветра
+39/+2
707 10 ЮЗ(230) 5 м/c
Облачность и видимость
Гор.видимость ВНГО, м Высота (м) и форма облаков: Верт.видимость
- - - -
Состояние ВПП
Состояние полос
Видимость по полосам, м
-
-
Исходная телеграмма в коде METAR
OSDI 031200Z 23009KT CAVOK 39/02 Q1007

Текущее время 12:58 UTC 03-07-2020
Солнце: восход 02:29, заход 16:47, долгота дня 14:19

  [06:00 (на 30ч)]

Прогноз погоды на 30 ч. с 06:00 03-07-2020 по 12:00 04-07-2020 UTC
OSDI (Дамаск) на 30ч. с 03/06ч. до 04/12ч., ветер переменный 2 м/c, ночь, день

временами с 03/20ч. до 04/06ч., ветер ВСВ(60) 4 м/c, ночь, день


Исходная телеграмма в коде TAF
OSDI 030850Z 0306/0412 VRB03KT CAVOK= OSLK 030850Z 0306/0412 25012KT BCAVOK
TEMPO 0320/0406 06008KT AMD

Раскодировка телеграмм производится в автоматическом режиме, в телеграммах могут содержаться ошибки, приводящие к их неправильной интерпретации.

Предупреждение: данные на этом сайте не могут быть использованы для планирования полётов и предоставляются только в информационных целях.
Найти аэропорт
По названию или городу
только регулярные рейсы

Избранные аэропорты
Список пуст



© 2008 Данио-Пресс. Все права защищены.
Использование материалов сайта возможно только с согласия администрации сервера.
По вопросам рекламы и размещения информации обращаться сюда.


 Рейтинг@Mail.ru  Rambler's Top100